sensor_id;sensor_type;location;lat;lon;timestamp;temperature;humidity
1534;DHT22;760;48.822;9.304;2024-02-26T05:09:46;8.00;99.90
1534;DHT22;760;48.822;9.304;2024-02-26T05:12:15;8.00;99.90
1534;DHT22;760;48.822;9.304;2024-02-26T05:14:40;8.00;99.90
1534;DHT22;760;48.822;9.304;2024-02-26T05:17:06;8.00;99.90
1534;DHT22;760;48.822;9.304;2024-02-26T05:19:31;8.00;99.90
1534;DHT22;760;48.822;9.304;2024-02-26T05:21:57;8.10;99.90
1534;DHT22;760;48.822;9.304;2024-02-26T05:24:23;8.10;99.90
1534;DHT22;760;48.822;9.304;2024-02-26T05:26:48;8.10;99.90
1534;DHT22;760;48.822;9.304;2024-02-26T05:29:14;8.10;99.90
1534;DHT22;760;48.822;9.304;2024-02-26T05:31:42;8.10;99.90
1534;DHT22;760;48.822;9.304;2024-02-26T05:34:08;8.10;99.90
1534;DHT22;760;48.822;9.304;2024-02-26T05:36:33;8.00;99.90
1534;DHT22;760;48.822;9.304;2024-02-26T05:39:00;8.10;99.90
1534;DHT22;760;48.822;9.304;2024-02-26T05:41:26;8.10;99.90
1534;DHT22;760;48.822;9.304;2024-02-26T05:43:52;8.10;99.90
1534;DHT22;760;48.822;9.304;2024-02-26T05:46:19;8.10;99.90
1534;DHT22;760;48.822;9.304;2024-02-26T05:48:47;8.10;99.90
1534;DHT22;760;48.822;9.304;2024-02-26T05:51:13;8.10;99.90
1534;DHT22;760;48.822;9.304;2024-02-26T05:53:39;8.10;99.90
1534;DHT22;760;48.822;9.304;2024-02-26T05:56:05;8.10;99.90
1534;DHT22;760;48.822;9.304;2024-02-26T05:58:31;8.10;99.90
1534;DHT22;760;48.822;9.304;2024-02-26T06:00:57;8.10;99.90
1534;DHT22;760;48.822;9.304;2024-02-26T06:03:22;8.10;99.90
1534;DHT22;760;48.822;9.304;2024-02-26T06:05:48;8.10;99.90
1534;DHT22;760;48.822;9.304;2024-02-26T06:08:13;8.10;99.90
1534;DHT22;760;48.822;9.304;2024-02-26T06:10:40;8.10;99.90
1534;DHT22;760;48.822;9.304;2024-02-26T06:13:07;8.10;99.90
1534;DHT22;760;48.822;9.304;2024-02-26T06:15:33;8.10;99.90
1534;DHT22;760;48.822;9.304;2024-02-26T06:17:59;8.10;99.90
1534;DHT22;760;48.822;9.304;2024-02-26T06:20:24;8.10;99.90
1534;DHT22;760;48.822;9.304;2024-02-26T06:22:51;8.00;99.90
1534;DHT22;760;48.822;9.304;2024-02-26T06:25:17;8.00;99.90
1534;DHT22;760;48.822;9.304;2024-02-26T06:27:42;8.00;99.90
1534;DHT22;760;48.822;9.304;2024-02-26T06:30:08;8.00;99.90
1534;DHT22;760;48.822;9.304;2024-02-26T06:32:39;8.00;99.90
1534;DHT22;760;48.822;9.304;2024-02-26T06:35:05;8.00;99.90
1534;DHT22;760;48.822;9.304;2024-02-26T06:37:33;8.00;99.90
1534;DHT22;760;48.822;9.304;2024-02-26T06:39:59;8.00;99.90
1534;DHT22;760;48.822;9.304;2024-02-26T06:42:25;8.00;99.90
1534;DHT22;760;48.822;9.304;2024-02-26T06:44:51;8.00;99.90
1534;DHT22;760;48.822;9.304;2024-02-26T06:47:16;8.10;99.90
1534;DHT22;760;48.822;9.304;2024-02-26T06:49:42;8.10;99.90
1534;DHT22;760;48.822;9.304;2024-02-26T06:52:08;8.10;99.90
1534;DHT22;760;48.822;9.304;2024-02-26T06:54:34;8.10;99.90
1534;DHT22;760;48.822;9.304;2024-02-26T06:57:00;8.20;99.90
1534;DHT22;760;48.822;9.304;2024-02-26T06:59:25;8.10;99.90
1534;DHT22;760;48.822;9.304;2024-02-26T07:01:51;8.20;99.90
1534;DHT22;760;48.822;9.304;2024-02-26T07:04:16;8.20;99.90
1534;DHT22;760;48.822;9.304;2024-02-26T07:06:42;8.30;99.90
1534;DHT22;760;48.822;9.304;2024-02-26T07:09:09;8.30;99.90
1534;DHT22;760;48.822;9.304;2024-02-26T07:11:34;8.40;99.90
1534;DHT22;760;48.822;9.304;2024-02-26T07:14:00;8.30;99.90
1534;DHT22;760;48.822;9.304;2024-02-26T07:16:26;8.40;99.90
1534;DHT22;760;48.822;9.304;2024-02-26T07:18:52;8.40;99.90
1534;DHT22;760;48.822;9.304;2024-02-26T07:21:18;8.40;99.90
1534;DHT22;760;48.822;9.304;2024-02-26T07:23:43;8.40;99.90
1534;DHT22;760;48.822;9.304;2024-02-26T07:26:09;8.50;99.90
1534;DHT22;760;48.822;9.304;2024-02-26T07:28:37;8.50;99.90
1534;DHT22;760;48.822;9.304;2024-02-26T07:31:03;8.50;99.90
1534;DHT22;760;48.822;9.304;2024-02-26T07:33:29;8.40;99.90
1534;DHT22;760;48.822;9.304;2024-02-26T07:35:54;8.50;99.90
1534;DHT22;760;48.822;9.304;2024-02-26T07:38:20;8.50;99.90
1534;DHT22;760;48.822;9.304;2024-02-26T07:40:46;8.60;99.90
1534;DHT22;760;48.822;9.304;2024-02-26T07:43:12;8.50;99.90
1534;DHT22;760;48.822;9.304;2024-02-26T07:45:37;8.60;99.90
1534;DHT22;760;48.822;9.304;2024-02-26T07:48:03;8.60;99.90
1534;DHT22;760;48.822;9.304;2024-02-26T07:50:29;8.60;99.90
1534;DHT22;760;48.822;9.304;2024-02-26T07:52:54;8.60;99.90
1534;DHT22;760;48.822;9.304;2024-02-26T07:55:20;8.70;99.90
1534;DHT22;760;48.822;9.304;2024-02-26T07:57:45;8.80;99.90
1534;DHT22;760;48.822;9.304;2024-02-26T08:00:11;8.90;99.90
1534;DHT22;760;48.822;9.304;2024-02-26T08:02:37;8.80;99.90
1534;DHT22;760;48.822;9.304;2024-02-26T08:05:03;8.80;99.90
1534;DHT22;760;48.822;9.304;2024-02-26T08:07:30;8.90;99.90
1534;DHT22;760;48.822;9.304;2024-02-26T08:09:55;8.90;99.90
1534;DHT22;760;48.822;9.304;2024-02-26T08:12:21;9.00;99.90
1534;DHT22;760;48.822;9.304;2024-02-26T08:14:46;9.00;99.90
1534;DHT22;760;48.822;9.304;2024-02-26T08:17:12;9.10;99.90
1534;DHT22;760;48.822;9.304;2024-02-26T08:19:38;9.20;99.90
1534;DHT22;760;48.822;9.304;2024-02-26T08:22:04;9.20;99.90
1534;DHT22;760;48.822;9.304;2024-02-26T08:24:29;9.20;99.90
1534;DHT22;760;48.822;9.304;2024-02-26T08:26:55;9.20;99.90
1534;DHT22;760;48.822;9.304;2024-02-26T08:29:20;9.20;99.90
1534;DHT22;760;48.822;9.304;2024-02-26T08:31:46;9.20;99.90
1534;DHT22;760;48.822;9.304;2024-02-26T08:34:12;9.10;99.90
1534;DHT22;760;48.822;9.304;2024-02-26T08:36:37;9.10;99.90
1534;DHT22;760;48.822;9.304;2024-02-26T08:39:03;9.10;99.90
1534;DHT22;760;48.822;9.304;2024-02-26T08:41:29;8.90;99.90
1534;DHT22;760;48.822;9.304;2024-02-26T08:43:54;8.80;99.90
1534;DHT22;760;48.822;9.304;2024-02-26T08:46:20;8.70;99.90
1534;DHT22;760;48.822;9.304;2024-02-26T08:48:46;8.70;99.90
1534;DHT22;760;48.822;9.304;2024-02-26T08:51:11;8.60;99.90
1534;DHT22;760;48.822;9.304;2024-02-26T08:53:38;8.70;99.90
1534;DHT22;760;48.822;9.304;2024-02-26T08:56:04;8.70;99.90
1534;DHT22;760;48.822;9.304;2024-02-26T08:58:30;8.80;99.90
1534;DHT22;760;48.822;9.304;2024-02-26T09:00:56;8.70;99.90
1534;DHT22;760;48.822;9.304;2024-02-26T09:03:22;8.70;99.90
1534;DHT22;760;48.822;9.304;2024-02-26T09:05:48;8.70;99.90
1534;DHT22;760;48.822;9.304;2024-02-26T09:08:14;8.70;99.90
1534;DHT22;760;48.822;9.304;2024-02-26T09:10:40;8.80;99.90
1534;DHT22;760;48.822;9.304;2024-02-26T09:13:07;8.90;99.90
1534;DHT22;760;48.822;9.304;2024-02-26T09:15:33;9.00;99.90
1534;DHT22;760;48.822;9.304;2024-02-26T09:17:58;9.10;99.90
1534;DHT22;760;48.822;9.304;2024-02-26T09:20:24;9.20;99.90
1534;DHT22;760;48.822;9.304;2024-02-26T09:22:50;9.30;99.90
1534;DHT22;760;48.822;9.304;2024-02-26T09:25:16;9.40;99.90
1534;DHT22;760;48.822;9.304;2024-02-26T09:27:43;9.40;99.90
1534;DHT22;760;48.822;9.304;2024-02-26T09:30:10;9.60;99.90
1534;DHT22;760;48.822;9.304;2024-02-26T09:32:35;9.60;99.90
1534;DHT22;760;48.822;9.304;2024-02-26T09:35:01;9.70;99.90
1534;DHT22;760;48.822;9.304;2024-02-26T09:37:27;9.80;99.90
1534;DHT22;760;48.822;9.304;2024-02-26T09:39:53;9.90;99.90
1534;DHT22;760;48.822;9.304;2024-02-26T09:42:19;10.00;99.90
1534;DHT22;760;48.822;9.304;2024-02-26T09:44:45;10.20;99.90
1534;DHT22;760;48.822;9.304;2024-02-26T09:47:12;10.20;99.90
1534;DHT22;760;48.822;9.304;2024-02-26T09:49:46;10.40;99.90
1534;DHT22;760;48.822;9.304;2024-02-26T09:52:15;10.50;99.90
1534;DHT22;760;48.822;9.304;2024-02-26T09:54:41;10.60;99.90
1534;DHT22;760;48.822;9.304;2024-02-26T09:57:09;10.70;99.90
1534;DHT22;760;48.822;9.304;2024-02-26T09:59:41;10.80;99.90
1534;DHT22;760;48.822;9.304;2024-02-26T10:02:12;10.80;99.90
1534;DHT22;760;48.822;9.304;2024-02-26T10:04:42;10.70;99.90
1534;DHT22;760;48.822;9.304;2024-02-26T10:07:12;10.60;99.90
1534;DHT22;760;48.822;9.304;2024-02-26T10:09:39;10.40;99.90
1534;DHT22;760;48.822;9.304;2024-02-26T10:12:05;10.30;99.90
1534;DHT22;760;48.822;9.304;2024-02-26T10:14:32;10.20;99.90
1534;DHT22;760;48.822;9.304;2024-02-26T10:16:59;10.20;99.90
1534;DHT22;760;48.822;9.304;2024-02-26T10:19:27;10.30;99.90
1534;DHT22;760;48.822;9.304;2024-02-26T10:21:58;10.60;99.90
1534;DHT22;760;48.822;9.304;2024-02-26T10:24:24;10.90;99.90
1534;DHT22;760;48.822;9.304;2024-02-26T10:26:51;11.30;99.90
1534;DHT22;760;48.822;9.304;2024-02-26T10:29:18;11.80;99.90
1534;DHT22;760;48.822;9.304;2024-02-26T10:31:45;12.10;99.90
1534;DHT22;760;48.822;9.304;2024-02-26T10:34:10;12.40;99.90
1534;DHT22;760;48.822;9.304;2024-02-26T10:36:36;12.70;99.20
1534;DHT22;760;48.822;9.304;2024-02-26T10:39:05;13.00;98.60
1534;DHT22;760;48.822;9.304;2024-02-26T10:41:32;13.20;98.60
1534;DHT22;760;48.822;9.304;2024-02-26T10:43:58;13.60;97.30
1534;DHT22;760;48.822;9.304;2024-02-26T10:46:42;13.90;96.70
1534;DHT22;760;48.822;9.304;2024-02-26T10:49:15;14.30;95.40
1534;DHT22;760;48.822;9.304;2024-02-26T10:51:44;14.70;95.90
1534;DHT22;760;48.822;9.304;2024-02-26T10:54:15;15.00;94.20
1534;DHT22;760;48.822;9.304;2024-02-26T10:56:42;15.00;93.10
1534;DHT22;760;48.822;9.304;2024-02-26T10:59:12;14.80;92.70
1534;DHT22;760;48.822;9.304;2024-02-26T11:01:38;14.80;93.00
1534;DHT22;760;48.822;9.304;2024-02-26T11:04:06;14.80;93.40
1534;DHT22;760;48.822;9.304;2024-02-26T11:06:33;14.80;93.10
1534;DHT22;760;48.822;9.304;2024-02-26T11:09:01;14.70;93.00
1534;DHT22;760;48.822;9.304;2024-02-26T11:11:27;14.50;92.40
1534;DHT22;760;48.822;9.304;2024-02-26T11:13:54;14.40;92.50
1534;DHT22;760;48.822;9.304;2024-02-26T11:16:21;14.30;92.80
1534;DHT22;760;48.822;9.304;2024-02-26T11:18:48;14.30;92.40
1534;DHT22;760;48.822;9.304;2024-02-26T11:21:18;14.30;93.00
1534;DHT22;760;48.822;9.304;2024-02-26T11:23:46;14.50;92.90
1534;DHT22;760;48.822;9.304;2024-02-26T11:26:15;14.80;92.40
1534;DHT22;760;48.822;9.304;2024-02-26T11:28:43;15.00;92.10
1534;DHT22;760;48.822;9.304;2024-02-26T11:31:10;15.00;91.80
1534;DHT22;760;48.822;9.304;2024-02-26T11:33:36;14.90;91.70
1534;DHT22;760;48.822;9.304;2024-02-26T11:36:07;14.80;92.00
1534;DHT22;760;48.822;9.304;2024-02-26T11:38:33;14.60;92.40
1534;DHT22;760;48.822;9.304;2024-02-26T11:40:59;14.50;92.50
1534;DHT22;760;48.822;9.304;2024-02-26T11:46:32;14.40;92.80
1534;DHT22;760;48.822;9.304;2024-02-26T11:51:54;14.60;92.40
1534;DHT22;760;48.822;9.304;2024-02-26T11:57:23;14.80;91.80
1534;DHT22;760;48.822;9.304;2024-02-26T11:59:50;14.80;91.70
1534;DHT22;760;48.822;9.304;2024-02-26T12:05:10;14.70;91.50
1534;DHT22;760;48.822;9.304;2024-02-26T12:07:39;14.80;91.60
1534;DHT22;760;48.822;9.304;2024-02-26T12:13:04;15.00;91.20
1534;DHT22;760;48.822;9.304;2024-02-26T12:15:37;15.00;90.70
1534;DHT22;760;48.822;9.304;2024-02-26T12:18:07;15.00;90.10
1534;DHT22;760;48.822;9.304;2024-02-26T12:20:33;15.10;90.20
1534;DHT22;760;48.822;9.304;2024-02-26T12:23:02;15.20;90.00
1534;DHT22;760;48.822;9.304;2024-02-26T12:25:29;15.30;90.40
1534;DHT22;760;48.822;9.304;2024-02-26T12:27:55;15.30;90.50
1534;DHT22;760;48.822;9.304;2024-02-26T12:30:21;15.40;88.40
1534;DHT22;760;48.822;9.304;2024-02-26T12:32:52;15.40;89.20
1534;DHT22;760;48.822;9.304;2024-02-26T12:35:18;15.40;89.70
1534;DHT22;760;48.822;9.304;2024-02-26T12:37:44;15.50;89.90
1534;DHT22;760;48.822;9.304;2024-02-26T12:40:11;15.60;89.90
1534;DHT22;760;48.822;9.304;2024-02-26T12:42:37;15.60;88.30
1534;DHT22;760;48.822;9.304;2024-02-26T12:45:11;15.50;88.60
1534;DHT22;760;48.822;9.304;2024-02-26T12:47:40;15.50;89.50
1534;DHT22;760;48.822;9.304;2024-02-26T12:50:08;15.50;89.10
1534;DHT22;760;48.822;9.304;2024-02-26T12:52:44;15.40;89.20
1534;DHT22;760;48.822;9.304;2024-02-26T12:55:14;15.30;89.30
1534;DHT22;760;48.822;9.304;2024-02-26T12:57:41;15.40;89.90
1534;DHT22;760;48.822;9.304;2024-02-26T13:00:12;15.50;89.60
1534;DHT22;760;48.822;9.304;2024-02-26T13:02:39;15.60;88.90
1534;DHT22;760;48.822;9.304;2024-02-26T13:05:06;15.70;88.70
1534;DHT22;760;48.822;9.304;2024-02-26T13:07:34;15.80;88.80
1534;DHT22;760;48.822;9.304;2024-02-26T13:10:00;15.80;88.50
1534;DHT22;760;48.822;9.304;2024-02-26T13:12:29;15.90;89.20
1534;DHT22;760;48.822;9.304;2024-02-26T13:15:02;16.00;88.90
1534;DHT22;760;48.822;9.304;2024-02-26T13:17:31;15.90;88.00
1534;DHT22;760;48.822;9.304;2024-02-26T13:19:57;15.90;88.80
1534;DHT22;760;48.822;9.304;2024-02-26T13:22:23;15.70;89.20
1534;DHT22;760;48.822;9.304;2024-02-26T13:24:59;15.70;90.00
1534;DHT22;760;48.822;9.304;2024-02-26T13:27:25;15.60;90.20
1534;DHT22;760;48.822;9.304;2024-02-26T13:30:10;15.60;90.40
1534;DHT22;760;48.822;9.304;2024-02-26T13:32:38;15.60;90.60
1534;DHT22;760;48.822;9.304;2024-02-26T13:35:07;15.70;90.80
1534;DHT22;760;48.822;9.304;2024-02-26T13:37:33;15.60;90.80
1534;DHT22;760;48.822;9.304;2024-02-26T13:39:59;15.60;91.20
1534;DHT22;760;48.822;9.304;2024-02-26T13:42:24;15.60;91.20
1534;DHT22;760;48.822;9.304;2024-02-26T13:44:50;15.60;90.70
1534;DHT22;760;48.822;9.304;2024-02-26T13:47:16;15.70;90.80
1534;DHT22;760;48.822;9.304;2024-02-26T13:49:41;15.60;90.70
1534;DHT22;760;48.822;9.304;2024-02-26T13:52:07;15.60;90.70
1534;DHT22;760;48.822;9.304;2024-02-26T13:54:32;15.60;90.90
1534;DHT22;760;48.822;9.304;2024-02-26T13:56:59;15.60;90.80
1534;DHT22;760;48.822;9.304;2024-02-26T13:59:24;15.60;90.50
1534;DHT22;760;48.822;9.304;2024-02-26T14:01:50;15.70;90.20
1534;DHT22;760;48.822;9.304;2024-02-26T14:04:15;15.70;90.60
1534;DHT22;760;48.822;9.304;2024-02-26T14:06:42;15.70;90.30
1534;DHT22;760;48.822;9.304;2024-02-26T14:09:07;15.90;90.40
1534;DHT22;760;48.822;9.304;2024-02-26T14:11:33;15.90;90.20
1534;DHT22;760;48.822;9.304;2024-02-26T14:13:59;16.00;89.90
1534;DHT22;760;48.822;9.304;2024-02-26T14:16:25;16.10;90.00
1534;DHT22;760;48.822;9.304;2024-02-26T14:18:51;16.20;89.00
1534;DHT22;760;48.822;9.304;2024-02-26T14:21:16;16.20;89.10
1534;DHT22;760;48.822;9.304;2024-02-26T14:23:42;16.10;89.20
1534;DHT22;760;48.822;9.304;2024-02-26T14:26:10;16.00;89.00
1534;DHT22;760;48.822;9.304;2024-02-26T14:28:35;15.90;88.80
1534;DHT22;760;48.822;9.304;2024-02-26T14:31:01;15.80;89.10
1534;DHT22;760;48.822;9.304;2024-02-26T14:33:26;15.60;90.00
1534;DHT22;760;48.822;9.304;2024-02-26T14:35:52;15.50;90.50
1534;DHT22;760;48.822;9.304;2024-02-26T14:38:17;15.40;90.30
1534;DHT22;760;48.822;9.304;2024-02-26T14:40:43;15.30;90.60
1534;DHT22;760;48.822;9.304;2024-02-26T14:43:08;15.20;90.60
1534;DHT22;760;48.822;9.304;2024-02-26T14:45:35;15.20;90.30
1534;DHT22;760;48.822;9.304;2024-02-26T14:48:01;15.10;90.10
1534;DHT22;760;48.822;9.304;2024-02-26T14:50:26;15.10;89.60
1534;DHT22;760;48.822;9.304;2024-02-26T14:52:52;15.10;90.30
1534;DHT22;760;48.822;9.304;2024-02-26T14:55:17;15.10;91.00
1534;DHT22;760;48.822;9.304;2024-02-26T14:57:43;15.00;91.30
1534;DHT22;760;48.822;9.304;2024-02-26T15:00:09;14.90;91.60
1534;DHT22;760;48.822;9.304;2024-02-26T15:02:35;14.90;91.70
1534;DHT22;760;48.822;9.304;2024-02-26T15:05:01;14.90;91.70
1534;DHT22;760;48.822;9.304;2024-02-26T15:07:26;14.90;91.80
1534;DHT22;760;48.822;9.304;2024-02-26T15:09:52;14.80;91.70
1534;DHT22;760;48.822;9.304;2024-02-26T15:12:22;14.80;91.60
1534;DHT22;760;48.822;9.304;2024-02-26T15:14:48;14.80;91.70
1534;DHT22;760;48.822;9.304;2024-02-26T15:17:13;14.80;91.70
1534;DHT22;760;48.822;9.304;2024-02-26T15:19:39;14.70;91.70
1534;DHT22;760;48.822;9.304;2024-02-26T15:22:05;14.70;91.70
1534;DHT22;760;48.822;9.304;2024-02-26T15:24:30;14.70;91.60
1534;DHT22;760;48.822;9.304;2024-02-26T15:26:56;14.70;91.90
1534;DHT22;760;48.822;9.304;2024-02-26T15:29:22;14.70;91.70
1534;DHT22;760;48.822;9.304;2024-02-26T15:31:48;14.60;91.90
1534;DHT22;760;48.822;9.304;2024-02-26T15:34:13;14.60;92.00
1534;DHT22;760;48.822;9.304;2024-02-26T15:36:40;14.50;92.10
1534;DHT22;760;48.822;9.304;2024-02-26T15:39:06;14.50;92.00
1534;DHT22;760;48.822;9.304;2024-02-26T15:41:32;14.40;92.30
1534;DHT22;760;48.822;9.304;2024-02-26T15:43:58;14.30;91.30
1534;DHT22;760;48.822;9.304;2024-02-26T15:46:26;14.30;91.40
1534;DHT22;760;48.822;9.304;2024-02-26T15:48:52;14.30;91.70
1534;DHT22;760;48.822;9.304;2024-02-26T15:51:21;14.20;91.80
1534;DHT22;760;48.822;9.304;2024-02-26T15:53:47;14.20;92.20
1534;DHT22;760;48.822;9.304;2024-02-26T15:56:14;14.10;92.50
1534;DHT22;760;48.822;9.304;2024-02-26T15:58:40;14.10;92.80
1534;DHT22;760;48.822;9.304;2024-02-26T16:01:06;14.00;93.00
1534;DHT22;760;48.822;9.304;2024-02-26T16:03:37;14.00;93.20
1534;DHT22;760;48.822;9.304;2024-02-26T16:06:03;14.00;93.10
1534;DHT22;760;48.822;9.304;2024-02-26T16:08:29;13.90;93.30
1534;DHT22;760;48.822;9.304;2024-02-26T16:10:54;13.90;93.30
1534;DHT22;760;48.822;9.304;2024-02-26T16:13:20;13.80;93.40
1534;DHT22;760;48.822;9.304;2024-02-26T16:15:58;13.70;93.40
1534;DHT22;760;48.822;9.304;2024-02-26T16:18:26;13.70;93.70
1534;DHT22;760;48.822;9.304;2024-02-26T16:20:52;13.70;93.80
1534;DHT22;760;48.822;9.304;2024-02-26T16:23:21;13.60;93.70
1534;DHT22;760;48.822;9.304;2024-02-26T16:25:47;13.50;93.30
1534;DHT22;760;48.822;9.304;2024-02-26T16:28:13;13.50;93.30
1534;DHT22;760;48.822;9.304;2024-02-26T16:30:39;13.40;92.90
1534;DHT22;760;48.822;9.304;2024-02-26T16:33:05;13.30;92.60
1534;DHT22;760;48.822;9.304;2024-02-26T16:35:31;13.20;92.40
1534;DHT22;760;48.822;9.304;2024-02-26T16:38:00;13.10;92.20
1534;DHT22;760;48.822;9.304;2024-02-26T16:40:26;13.00;92.10
1534;DHT22;760;48.822;9.304;2024-02-26T16:42:51;12.90;91.90
1534;DHT22;760;48.822;9.304;2024-02-26T16:45:17;12.90;92.10
1534;DHT22;760;48.822;9.304;2024-02-26T16:47:42;12.80;92.00
1534;DHT22;760;48.822;9.304;2024-02-26T16:50:12;12.80;91.80
1534;DHT22;760;48.822;9.304;2024-02-26T16:52:38;12.70;91.80
1534;DHT22;760;48.822;9.304;2024-02-26T16:55:04;12.70;91.60
1534;DHT22;760;48.822;9.304;2024-02-26T16:57:29;12.60;91.80
1534;DHT22;760;48.822;9.304;2024-02-26T16:59:55;12.60;91.90
1534;DHT22;760;48.822;9.304;2024-02-26T17:02:21;12.50;92.00
1534;DHT22;760;48.822;9.304;2024-02-26T17:04:46;12.50;92.10
1534;DHT22;760;48.822;9.304;2024-02-26T17:07:13;12.50;92.10
1534;DHT22;760;48.822;9.304;2024-02-26T17:09:41;12.40;92.20
1534;DHT22;760;48.822;9.304;2024-02-26T17:12:07;12.30;92.20
1534;DHT22;760;48.822;9.304;2024-02-26T17:14:36;12.30;92.50
1534;DHT22;760;48.822;9.304;2024-02-26T17:17:01;12.30;92.60
1534;DHT22;760;48.822;9.304;2024-02-26T17:19:28;12.20;92.80
1534;DHT22;760;48.822;9.304;2024-02-26T17:21:54;12.20;92.90
1534;DHT22;760;48.822;9.304;2024-02-26T17:24:20;12.20;93.00
1534;DHT22;760;48.822;9.304;2024-02-26T17:26:45;12.10;93.10
1534;DHT22;760;48.822;9.304;2024-02-26T17:29:11;12.10;93.20
1534;DHT22;760;48.822;9.304;2024-02-26T17:31:37;12.10;93.30
1534;DHT22;760;48.822;9.304;2024-02-26T17:34:08;12.00;93.40
1534;DHT22;760;48.822;9.304;2024-02-26T17:36:35;12.00;93.50
1534;DHT22;760;48.822;9.304;2024-02-26T17:39:01;12.00;93.80
1534;DHT22;760;48.822;9.304;2024-02-26T17:41:26;12.00;94.10
1534;DHT22;760;48.822;9.304;2024-02-26T17:43:52;12.00;93.90
1534;DHT22;760;48.822;9.304;2024-02-26T17:46:18;11.90;94.00
1534;DHT22;760;48.822;9.304;2024-02-26T17:48:44;11.90;94.10
1534;DHT22;760;48.822;9.304;2024-02-26T17:51:10;11.90;94.30
1534;DHT22;760;48.822;9.304;2024-02-26T17:53:39;11.90;94.50
1534;DHT22;760;48.822;9.304;2024-02-26T17:56:06;11.90;94.60
1534;DHT22;760;48.822;9.304;2024-02-26T17:58:32;11.80;94.80
1534;DHT22;760;48.822;9.304;2024-02-26T18:00:58;11.80;94.80
1534;DHT22;760;48.822;9.304;2024-02-26T18:03:24;11.80;94.90
1534;DHT22;760;48.822;9.304;2024-02-26T18:05:50;11.80;95.00
1534;DHT22;760;48.822;9.304;2024-02-26T18:08:16;11.80;95.10
1534;DHT22;760;48.822;9.304;2024-02-26T18:10:49;11.80;95.10
1534;DHT22;760;48.822;9.304;2024-02-26T18:13:15;11.80;95.20
1534;DHT22;760;48.822;9.304;2024-02-26T18:15:42;11.80;95.20
1534;DHT22;760;48.822;9.304;2024-02-26T18:18:07;11.70;95.30
1534;DHT22;760;48.822;9.304;2024-02-26T18:20:33;11.80;95.40
1534;DHT22;760;48.822;9.304;2024-02-26T18:22:59;11.80;95.40
1534;DHT22;760;48.822;9.304;2024-02-26T18:25:25;11.80;95.50
1534;DHT22;760;48.822;9.304;2024-02-26T18:27:50;11.80;95.60
1534;DHT22;760;48.822;9.304;2024-02-26T18:30:17;11.70;95.70
1534;DHT22;760;48.822;9.304;2024-02-26T18:32:43;11.70;96.20
1534;DHT22;760;48.822;9.304;2024-02-26T18:35:09;11.70;96.50
1534;DHT22;760;48.822;9.304;2024-02-26T18:37:35;11.70;96.60
1534;DHT22;760;48.822;9.304;2024-02-26T18:40:01;11.70;96.70
1534;DHT22;760;48.822;9.304;2024-02-26T18:42:29;11.70;97.00
1534;DHT22;760;48.822;9.304;2024-02-26T18:44:55;11.60;97.20
1534;DHT22;760;48.822;9.304;2024-02-26T18:47:22;11.60;97.80
1534;DHT22;760;48.822;9.304;2024-02-26T18:49:49;11.50;97.70
1534;DHT22;760;48.822;9.304;2024-02-26T18:52:14;11.50;98.20
1534;DHT22;760;48.822;9.304;2024-02-26T18:54:41;11.50;97.80
1534;DHT22;760;48.822;9.304;2024-02-26T18:57:09;11.40;98.10
1534;DHT22;760;48.822;9.304;2024-02-26T18:59:35;11.40;98.30
1534;DHT22;760;48.822;9.304;2024-02-26T19:02:01;11.40;98.40
1534;DHT22;760;48.822;9.304;2024-02-26T19:04:27;11.30;98.50
1534;DHT22;760;48.822;9.304;2024-02-26T19:06:54;11.30;98.70
1534;DHT22;760;48.822;9.304;2024-02-26T19:09:20;11.20;99.00
1534;DHT22;760;48.822;9.304;2024-02-26T19:11:46;11.20;99.30
1534;DHT22;760;48.822;9.304;2024-02-26T19:14:14;11.10;99.30
1534;DHT22;760;48.822;9.304;2024-02-26T19:16:40;11.10;99.30
1534;DHT22;760;48.822;9.304;2024-02-26T19:19:05;11.10;99.50
1534;DHT22;760;48.822;9.304;2024-02-26T19:21:34;11.10;99.50
1534;DHT22;760;48.822;9.304;2024-02-26T19:24:00;11.10;99.60
1534;DHT22;760;48.822;9.304;2024-02-26T19:26:29;11.10;99.60
1534;DHT22;760;48.822;9.304;2024-02-26T19:28:55;11.10;99.60
1534;DHT22;760;48.822;9.304;2024-02-26T19:31:21;11.10;99.60
1534;DHT22;760;48.822;9.304;2024-02-26T19:33:47;11.10;99.60
1534;DHT22;760;48.822;9.304;2024-02-26T19:36:13;11.10;99.50
1534;DHT22;760;48.822;9.304;2024-02-26T19:38:38;11.10;99.60
1534;DHT22;760;48.822;9.304;2024-02-26T19:41:05;11.10;99.60
1534;DHT22;760;48.822;9.304;2024-02-26T19:43:30;11.10;99.60
1534;DHT22;760;48.822;9.304;2024-02-26T19:45:59;11.10;99.70
1534;DHT22;760;48.822;9.304;2024-02-26T19:48:25;11.10;99.80
1534;DHT22;760;48.822;9.304;2024-02-26T19:50:50;11.00;99.70
1534;DHT22;760;48.822;9.304;2024-02-26T19:53:16;11.10;99.80
1534;DHT22;760;48.822;9.304;2024-02-26T19:55:45;11.10;99.90
1534;DHT22;760;48.822;9.304;2024-02-26T19:58:11;11.00;99.90
1534;DHT22;760;48.822;9.304;2024-02-26T20:00:37;11.00;99.90
1534;DHT22;760;48.822;9.304;2024-02-26T20:03:03;11.00;99.90
1534;DHT22;760;48.822;9.304;2024-02-26T20:05:31;11.00;99.90
1534;DHT22;760;48.822;9.304;2024-02-26T20:07:57;11.00;99.90
1534;DHT22;760;48.822;9.304;2024-02-26T20:10:23;10.90;99.90
1534;DHT22;760;48.822;9.304;2024-02-26T20:12:49;10.90;99.90
1534;DHT22;760;48.822;9.304;2024-02-26T20:15:23;10.90;99.90
1534;DHT22;760;48.822;9.304;2024-02-26T20:17:49;10.90;99.90
1534;DHT22;760;48.822;9.304;2024-02-26T20:20:15;10.90;99.90
1534;DHT22;760;48.822;9.304;2024-02-26T20:22:42;10.90;99.90
1534;DHT22;760;48.822;9.304;2024-02-26T20:25:12;10.80;99.90
1534;DHT22;760;48.822;9.304;2024-02-26T20:27:38;10.90;99.90
1534;DHT22;760;48.822;9.304;2024-02-26T20:30:04;10.90;99.90
1534;DHT22;760;48.822;9.304;2024-02-26T20:32:30;10.90;99.90
1534;DHT22;760;48.822;9.304;2024-02-26T20:34:59;10.90;99.90
1534;DHT22;760;48.822;9.304;2024-02-26T20:37:25;10.90;99.90
1534;DHT22;760;48.822;9.304;2024-02-26T20:39:50;10.90;99.90
1534;DHT22;760;48.822;9.304;2024-02-26T20:42:16;10.90;99.90
1534;DHT22;760;48.822;9.304;2024-02-26T20:44:43;10.90;99.90
1534;DHT22;760;48.822;9.304;2024-02-26T20:47:09;10.90;99.90
1534;DHT22;760;48.822;9.304;2024-02-26T20:49:36;10.90;99.90
1534;DHT22;760;48.822;9.304;2024-02-26T20:52:01;10.90;99.90
1534;DHT22;760;48.822;9.304;2024-02-26T20:54:27;10.90;99.90
1534;DHT22;760;48.822;9.304;2024-02-26T20:56:53;10.90;99.90
1534;DHT22;760;48.822;9.304;2024-02-26T20:59:19;10.90;99.90
1534;DHT22;760;48.822;9.304;2024-02-26T21:01:45;10.90;99.90
1534;DHT22;760;48.822;9.304;2024-02-26T21:04:12;10.90;99.90
1534;DHT22;760;48.822;9.304;2024-02-26T21:06:40;10.80;99.90
1534;DHT22;760;48.822;9.304;2024-02-26T21:09:05;10.80;99.90
1534;DHT22;760;48.822;9.304;2024-02-26T21:11:34;10.70;99.90
1534;DHT22;760;48.822;9.304;2024-02-26T21:14:00;10.70;99.90
1534;DHT22;760;48.822;9.304;2024-02-26T21:16:26;10.60;99.90
1534;DHT22;760;48.822;9.304;2024-02-26T21:18:51;10.50;99.90
1534;DHT22;760;48.822;9.304;2024-02-26T21:21:17;10.40;99.90
1534;DHT22;760;48.822;9.304;2024-02-26T21:23:45;10.20;99.90
1534;DHT22;760;48.822;9.304;2024-02-26T21:26:14;10.10;99.90
1534;DHT22;760;48.822;9.304;2024-02-26T21:28:40;9.90;99.90
1534;DHT22;760;48.822;9.304;2024-02-26T21:31:07;9.80;99.90
1534;DHT22;760;48.822;9.304;2024-02-26T21:33:33;9.70;99.90
1534;DHT22;760;48.822;9.304;2024-02-26T21:35:58;9.60;99.90
1534;DHT22;760;48.822;9.304;2024-02-26T21:38:24;9.50;99.90
1534;DHT22;760;48.822;9.304;2024-02-26T21:40:50;9.50;99.90